»·PEaware :: UAL257 KDEN-KSFO

UAL257 :: KDEN-KSFO

FLIGHT INFORMATION

Flight Status: Arrived
Operator:
United Airlines
More flights by this operator :: More flights under this callsign
Pilot: Thomas C. (28508)
Aircraft: BOEING 777-200
(B772)
More flights by this aircraft type
Origin: KDEN Denver Intl
United States
Destination: KSFO San Francisco Intl
United States
More flights between these airports :: More routes between these airports
Route: COORZ6 VOAXA Q136 RUMPS OAL INYOE DYAMD5
File this flight plan on PilotEdge
Remarks: PBN / A1B1C1D1L1O1S2 NAV / RNVD1E2A1 DOF / 200331 REG / N788UA EET / KZLC0039 KZOA0128 SEL / ASCF OPR / UAL PER / D RMK / TCAS
Altitude:
(Current/Filed)
40,000ft
Speed:
(Current/Filed)
480kts
Departed: 30-Mar-20 08:27 PM
Arrived: 30-Mar-20 10:39 PM
Distance/Time
Traveled:
839nm/2:12
Distance/Time
To Go:
Arrived

Flight Plot

Page will automatically refresh every two minutes.

Flight plan parsing failed; only flown route is shown


Map Options




Map Legend


Flown Route
Filed Route
Departure Airport
Arrival Airport
Navaid (VOR, NDB)
Fix

Horizontal Profiles

Position Reports

Time Latitude Longitude Heading Altitude Ground
Speed
30-Mar-20 19:52 39.858041 -104.674586 0 5388ft 0kts
30-Mar-20 19:53 39.858041 -104.674586 0 5388ft 0kts
30-Mar-20 19:54 39.858041 -104.674586 0 5388ft 0kts
30-Mar-20 19:55 39.858041 -104.674586 0 5388ft 0kts
30-Mar-20 19:56 39.858041 -104.674586 0 5388ft 0kts
30-Mar-20 19:57 39.858041 -104.674586 0 5388ft 0kts
30-Mar-20 19:58 39.858041 -104.674586 0 5388ft 0kts
30-Mar-20 19:59 39.858041 -104.674586 0 5388ft 0kts
30-Mar-20 20:00 39.858041 -104.674586 0 5388ft 0kts
30-Mar-20 20:01 39.858041 -104.674586 0 5388ft 0kts
30-Mar-20 20:02 39.858041 -104.674586 0 5388ft 0kts
30-Mar-20 20:03 39.858041 -104.674586 0 5388ft 0kts
30-Mar-20 20:04 39.858041 -104.674586 0 5388ft 0kts
30-Mar-20 20:05 39.858041 -104.674586 0 5388ft 0kts
30-Mar-20 20:06 39.858041 -104.674586 0 5388ft 0kts
30-Mar-20 20:07 39.858041 -104.674586 0 5388ft 0kts
30-Mar-20 20:08 39.858041 -104.674586 0 5388ft 0kts
30-Mar-20 20:09 39.858041 -104.674586 0 5388ft 0kts
30-Mar-20 20:10 39.858041 -104.674586 0 5388ft 0kts
30-Mar-20 20:11 39.858041 -104.674586 0 5388ft 0kts
30-Mar-20 20:12 39.858041 -104.674586 0 5388ft 0kts
30-Mar-20 20:13 39.858041 -104.674586 0 5388ft 0kts
30-Mar-20 20:14 39.857717 -104.674593 0 5388ft 2kts
30-Mar-20 20:15 39.857318 -104.674342 270 5388ft 0kts
30-Mar-20 20:16 39.857319 -104.674287 269 5388ft 0kts
30-Mar-20 20:18 39.857319 -104.674288 269 5388ft 0kts
30-Mar-20 20:19 39.857348 -104.675723 268 5388ft 12kts
30-Mar-20 20:20 39.857366 -104.679011 264 5388ft 0kts
30-Mar-20 20:21 39.857348 -104.679103 251 5388ft 3kts
30-Mar-20 20:22 39.856871 -104.682548 272 5385ft 15kts
30-Mar-20 20:23 39.853874 -104.684014 180 5382ft 16kts
30-Mar-20 20:24 39.848720 -104.684071 180 5380ft 21kts
30-Mar-20 20:25 39.842375 -104.684154 180 5375ft 14kts
30-Mar-20 20:26 39.841551 -104.684182 181 5375ft 10kts
30-Mar-20 20:27 39.840791 -104.701223 269 5378ft 149kts
30-Mar-20 20:28 39.841620 -104.769303 269 7544ft 233kts
30-Mar-20 20:29 39.842619 -104.866191 270 9997ft 299kts
30-Mar-20 20:30 39.844685 -104.978064 272 11495ft 351kts
30-Mar-20 20:31 39.847952 -105.110636 273 16542ft 373kts
30-Mar-20 20:32 39.851018 -105.249215 274 20778ft 394kts
30-Mar-20 20:33 39.854260 -105.394165 275 23118ft 405kts
30-Mar-20 20:34 39.857189 -105.545306 275 26295ft 423kts
30-Mar-20 20:34 39.859772 -105.675876 276 28623ft 443kts
30-Mar-20 20:36 39.847949 -105.866072 268 32305ft 456kts
30-Mar-20 20:37 39.833883 -106.029147 267 35883ft 449kts
30-Mar-20 20:38 39.819749 -106.188892 265 38663ft 445kts
30-Mar-20 20:38 39.807765 -106.321566 265 40236ft 440kts
30-Mar-20 20:39 39.793432 -106.478857 265 40232ft 439kts
30-Mar-20 20:41 39.774448 -106.662336 263 40234ft 439kts
30-Mar-20 20:41 39.760125 -106.793408 263 40238ft 438kts
30-Mar-20 20:42 39.742807 -106.949960 263 40237ft 437kts
30-Mar-20 20:43 39.725281 -107.106394 263 40236ft 436kts
30-Mar-20 20:45 39.704668 -107.287954 263 40288ft 436kts
30-Mar-20 20:45 39.689813 -107.417185 263 40286ft 435kts
30-Mar-20 20:46 39.671759 -107.572544 263 40284ft 434kts
30-Mar-20 20:47 39.653544 -107.727402 263 40213ft 433kts
30-Mar-20 20:48 39.635167 -107.881881 263 40211ft 433kts
30-Mar-20 20:49 39.616627 -108.035900 263 40210ft 432kts
30-Mar-20 20:50 39.597920 -108.189539 263 40208ft 431kts
30-Mar-20 20:51 39.579064 -108.342633 263 40179ft 430kts
30-Mar-20 20:52 39.560012 -108.495599 263 40177ft 430kts
30-Mar-20 20:53 39.540799 -108.648166 263 40175ft 429kts
30-Mar-20 20:54 39.521602 -108.798959 262 40186ft 428kts
30-Mar-20 20:55 39.502055 -108.950882 263 40184ft 427kts
30-Mar-20 20:56 39.482335 -109.102521 263 40182ft 427kts
30-Mar-20 20:57 39.462501 -109.253450 263 40180ft 426kts
30-Mar-20 20:58 39.442475 -109.404267 263 40178ft 425kts
30-Mar-20 20:59 39.422236 -109.555137 263 40176ft 424kts
30-Mar-20 21:00 39.401883 -109.705270 262 40215ft 424kts
30-Mar-20 21:01 39.381325 -109.855496 262 40159ft 423kts
30-Mar-20 21:02 39.360880 -110.005039 263 40157ft 422kts
30-Mar-20 21:03 39.340853 -110.154491 262 40180ft 422kts
30-Mar-20 21:04 39.320764 -110.302991 262 40179ft 421kts
30-Mar-20 21:05 39.300383 -110.452156 262 40177ft 421kts
30-Mar-20 21:06 39.279954 -110.600215 262 40175ft 420kts
30-Mar-20 21:07 39.259221 -110.748989 262 40187ft 420kts
30-Mar-20 21:08 39.238397 -110.897022 262 40185ft 419kts
30-Mar-20 21:09 39.217463 -111.044503 262 40183ft 419kts
30-Mar-20 21:10 39.196282 -111.192345 262 40194ft 418kts
30-Mar-20 21:11 39.175005 -111.339481 262 40206ft 418kts
30-Mar-20 21:12 39.153480 -111.486952 262 40204ft 418kts
30-Mar-20 21:13 39.131919 -111.633321 262 40202ft 417kts
30-Mar-20 21:14 39.110097 -111.780076 261 40214ft 417kts
30-Mar-20 21:15 39.088121 -111.926602 261 40212ft 417kts
30-Mar-20 21:16 39.065956 -112.073055 261 40210ft 416kts
30-Mar-20 21:17 39.043599 -112.219485 261 40208ft 416kts
30-Mar-20 21:18 39.021230 -112.364710 261 40206ft 415kts
30-Mar-20 21:19 38.998575 -112.510448 261 40203ft 415kts
30-Mar-20 21:20 38.975801 -112.655678 261 40203ft 414kts
30-Mar-20 21:21 38.952843 -112.800806 261 40214ft 414kts
30-Mar-20 21:22 38.929692 -112.945969 261 40212ft 414kts
30-Mar-20 21:23 38.906483 -113.090284 261 40210ft 413kts
30-Mar-20 21:24 38.883199 -113.233841 261 40206ft 413kts
30-Mar-20 21:25 38.859655 -113.377845 261 40204ft 413kts
30-Mar-20 21:26 38.835962 -113.521578 260 40201ft 412kts
30-Mar-20 21:27 38.812194 -113.664594 260 40208ft 412kts
30-Mar-20 21:28 38.788179 -113.807992 260 40213ft 412kts
30-Mar-20 21:29 38.763992 -113.951215 260 40211ft 411kts
30-Mar-20 21:30 38.739654 -114.094182 260 40208ft 411kts
30-Mar-20 21:31 38.715192 -114.236760 260 40206ft 411kts
30-Mar-20 21:32 38.690555 -114.379254 260 40204ft 410kts
30-Mar-20 21:33 38.665714 -114.521825 260 40201ft 410kts
30-Mar-20 21:34 38.640927 -114.662997 259 40207ft 410kts
30-Mar-20 21:35 38.615846 -114.804799 259 40213ft 409kts
30-Mar-20 21:36 38.590567 -114.946649 259 40211ft 409kts
30-Mar-20 21:37 38.565173 -115.088077 259 40209ft 409kts
30-Mar-20 21:38 38.539524 -115.229841 259 40206ft 409kts
30-Mar-20 21:39 38.513734 -115.371338 259 40204ft 409kts
30-Mar-20 21:40 38.487822 -115.512470 259 40202ft 410kts
30-Mar-20 21:41 38.461619 -115.654159 259 40201ft 410kts
30-Mar-20 21:42 38.435253 -115.795694 258 40214ft 410kts
30-Mar-20 21:43 38.408728 -115.937085 258 40211ft 410kts
30-Mar-20 21:44 38.381995 -116.078568 258 40236ft 411kts
30-Mar-20 21:45 38.355069 -116.220059 258 40234ft 411kts
30-Mar-20 21:46 38.327126 -116.361436 256 40230ft 412kts
30-Mar-20 21:47 38.295735 -116.501124 256 40229ft 412kts
30-Mar-20 21:48 38.264011 -116.641587 256 40227ft 412kts
30-Mar-20 21:49 38.232367 -116.780821 256 40241ft 413kts
30-Mar-20 21:50 38.200308 -116.921056 256 40238ft 413kts
30-Mar-20 21:51 38.168462 -117.059512 256 40236ft 409kts
30-Mar-20 21:52 38.136328 -117.198386 256 40234ft 409kts
30-Mar-20 21:53 38.104313 -117.336724 256 40231ft 410kts
30-Mar-20 21:54 38.072224 -117.475379 256 40229ft 410kts
30-Mar-20 21:55 38.039891 -117.614281 256 40227ft 410kts
30-Mar-20 21:56 38.007386 -117.753210 256 40242ft 411kts
30-Mar-20 21:57 37.990328 -117.895641 263 40238ft 410kts
30-Mar-20 21:58 37.975118 -118.038837 263 40236ft 410kts
30-Mar-20 21:59 37.959785 -118.182285 263 40234ft 411kts
30-Mar-20 22:00 37.944272 -118.325791 263 40312ft 412kts
30-Mar-20 22:01 37.928542 -118.469614 263 40310ft 412kts
30-Mar-20 22:02 37.912704 -118.612898 262 40307ft 412kts
30-Mar-20 22:03 37.896847 -118.754463 262 40323ft 413kts
30-Mar-20 22:04 37.880553 -118.898503 262 40321ft 414kts
30-Mar-20 22:05 37.864066 -119.042607 262 40318ft 414kts
30-Mar-20 22:06 37.847427 -119.186441 262 40316ft 415kts
30-Mar-20 22:07 37.830556 -119.330691 262 40260ft 415kts
30-Mar-20 22:08 37.813441 -119.475336 262 39028ft 412kts
30-Mar-20 22:09 37.796785 -119.614693 262 37219ft 389kts
30-Mar-20 22:10 37.780858 -119.746692 262 35566ft 369kts
30-Mar-20 22:11 37.765323 -119.874339 262 34006ft 374kts
30-Mar-20 22:12 37.749257 -120.004991 262 32378ft 380kts
30-Mar-20 22:13 37.732784 -120.137693 262 30688ft 384kts
30-Mar-20 22:14 37.716029 -120.271383 262 28971ft 389kts
30-Mar-20 22:15 37.698991 -120.406336 263 27306ft 390kts
30-Mar-20 22:16 37.683076 -120.543159 263 25442ft 391kts
30-Mar-20 22:17 37.667514 -120.675534 263 23453ft 373kts
30-Mar-20 22:18 37.652412 -120.802455 263 21696ft 354kts
30-Mar-20 22:19 37.637997 -120.921937 263 20120ft 335kts
30-Mar-20 22:20 37.623262 -121.036099 263 18597ft 327kts
30-Mar-20 22:21 37.608277 -121.148151 263 16790ft 321kts
30-Mar-20 22:22 37.593612 -121.256983 263 15324ft 311kts
30-Mar-20 22:23 37.581180 -121.363986 264 13972ft 303kts
30-Mar-20 22:24 37.569044 -121.469182 263 12499ft 298kts
30-Mar-20 22:25 37.557222 -121.570572 263 11124ft 285kts
30-Mar-20 22:26 37.541494 -121.663277 255 9847ft 255kts
30-Mar-20 22:27 37.521384 -121.748054 255 8711ft 250kts
30-Mar-20 22:28 37.501548 -121.831022 254 7967ft 239kts
30-Mar-20 22:29 37.499729 -121.911724 288 6954ft 239kts
30-Mar-20 22:30 37.520213 -121.991174 288 5893ft 238kts
30-Mar-20 22:31 37.535760 -122.060778 283 4939ft 188kts
30-Mar-20 22:32 37.550935 -122.124297 285 3768ft 187kts
30-Mar-20 22:33 37.566004 -122.185748 287 2263ft 176kts
30-Mar-20 22:34 37.577983 -122.233223 287 1808ft 135kts
30-Mar-20 22:35 37.580995 -122.278043 280 1401ft 126kts
30-Mar-20 22:37 37.596904 -122.317555 296 774ft 127kts
30-Mar-20 22:38 37.613683 -122.357571 298 99ft 136kts
30-Mar-20 22:39 37.622226 -122.380698 276 26ft 28kts
30-Mar-20 22:40 37.621740 -122.386460 238 26ft 8kts
30-Mar-20 22:41 37.622473 -122.390118 250 26ft 2kts
30-Mar-20 22:42 37.620596 -122.392169 207 26ft 4kts
30-Mar-20 22:43 37.622236 -122.390967 55 26ft 9kts
30-Mar-20 22:44 37.621493 -122.387729 171 26ft 12kts
30-Mar-20 22:45 37.620804 -122.387745 198 26ft 0kts
30-Mar-20 22:46 37.620804 -122.387745 198 26ft 0kts

Navigation Log

Ident Type
Flight plan parsing failed, navigation log unavailable